Time;durP1;ratioP1;P1;durP2;ratioP2;P2;SDS_P1;SDS_P2;PMS_P1;PMS_P2;Temp;Humidity;BMP_temperature;BMP_pressure;BME280_temperature;BME280_humidity;BME280_pressure;Samples;Min_cycle;Max_cycle;Signal;HPM_P1;HPM_P2
2023/03/17 00:00:14;;;;;;;0.63;0.63;;;7.30;99.90;;;;;;5053861;28;20207;-63
2023/03/17 00:02:44;;;;;;;0.57;0.50;;;7.40;99.90;;;;;;5054047;28;20199;-64
2023/03/17 00:05:20;;;;;;;0.60;0.60;;;7.40;99.90;;;;;;5053296;28;20195;-63
2023/03/17 00:07:47;;;;;;;1.53;0.70;;;7.40;99.90;;;;;;5054112;28;20192;-65
2023/03/17 00:10:17;;;;;;;0.60;0.60;;;7.40;99.90;;;;;;5047502;28;20288;-64
2023/03/17 00:12:45;;;;;;;0.50;0.50;;;7.60;99.90;;;;;;5046749;28;20201;-63
2023/03/17 00:15:13;;;;;;;0.80;0.80;;;7.60;99.90;;;;;;5034968;28;20239;-62
2023/03/17 00:17:42;;;;;;;0.63;0.63;;;7.70;99.90;;;;;;5039352;28;20205;-63
2023/03/17 00:20:17;;;;;;;0.50;0.50;;;7.70;99.90;;;;;;5032745;28;20263;-65
2023/03/17 00:22:45;;;;;;;0.60;0.60;;;7.70;99.90;;;;;;5032906;28;20266;-64
2023/03/17 00:25:21;;;;;;;0.70;0.70;;;7.70;99.90;;;;;;5032260;28;20288;-64
2023/03/17 00:27:48;;;;;;;0.60;0.60;;;7.70;99.90;;;;;;5032935;28;20249;-62
2023/03/17 00:30:16;;;;;;;0.50;0.50;;;7.70;99.90;;;;;;5032594;28;20208;-63
2023/03/17 00:32:45;;;;;;;2.87;0.60;;;7.70;99.90;;;;;;5032574;28;20209;-62
2023/03/17 00:35:17;;;;;;;0.70;0.70;;;7.70;99.90;;;;;;5031770;28;20565;-63
2023/03/17 00:37:45;;;;;;;0.40;0.40;;;7.70;99.90;;;;;;5033041;28;20673;-63
2023/03/17 00:40:17;;;;;;;0.50;0.50;;;7.70;99.90;;;;;;5033202;28;20211;-64
2023/03/17 00:42:45;;;;;;;0.37;0.37;;;7.70;99.90;;;;;;5032820;28;20199;-64
2023/03/17 00:45:12;;;;;;;0.53;0.53;;;7.70;99.90;;;;;;5031933;28;20291;-63
2023/03/17 00:47:40;;;;;;;0.53;0.53;;;7.70;99.90;;;;;;5032863;28;20209;-65
2023/03/17 00:50:15;;;;;;;0.50;0.50;;;7.80;99.90;;;;;;5032848;28;20217;-62
2023/03/17 00:52:42;;;;;;;0.50;0.50;;;7.80;99.90;;;;;;5033188;28;20200;-64
2023/03/17 00:55:10;;;;;;;0.50;0.50;;;7.80;99.90;;;;;;5033463;28;20201;-63
2023/03/17 00:57:38;;;;;;;0.60;0.60;;;7.80;99.90;;;;;;5033580;28;20233;-64
2023/03/17 01:00:07;;;;;;;0.60;0.60;;;7.80;99.90;;;;;;5032884;28;20217;-63
2023/03/17 01:02:34;;;;;;;0.60;0.60;;;7.90;99.90;;;;;;5032971;28;20216;-64
2023/03/17 01:05:01;;;;;;;0.50;0.50;;;7.90;99.90;;;;;;5031722;28;20607;-64
2023/03/17 01:07:30;;;;;;;0.57;0.57;;;7.90;99.90;;;;;;5032409;28;20228;-63
2023/03/17 01:09:57;;;;;;;0.57;0.57;;;7.90;99.90;;;;;;5032362;28;20240;-64
2023/03/17 01:12:25;;;;;;;0.60;0.60;;;7.90;99.90;;;;;;5032003;28;20371;-64
2023/03/17 01:14:52;;;;;;;0.60;0.60;;;7.90;99.90;;;;;;5030950;28;20229;-63
2023/03/17 01:17:19;;;;;;;0.57;0.57;;;7.80;99.90;;;;;;5031821;28;20232;-62
2023/03/17 01:19:47;;;;;;;0.40;0.40;;;7.80;99.90;;;;;;5034803;28;20222;-63
2023/03/17 01:22:14;;;;;;;0.50;0.50;;;7.70;99.90;;;;;;5049911;28;20281;-65
2023/03/17 01:24:42;;;;;;;0.47;0.47;;;7.80;99.90;;;;;;5051524;28;20204;-64
2023/03/17 01:27:10;;;;;;;0.50;0.50;;;7.80;99.90;;;;;;5051827;28;20297;-62
2023/03/17 01:29:37;;;;;;;0.70;0.70;;;7.80;99.90;;;;;;5052063;28;20208;-64
2023/03/17 01:32:05;;;;;;;0.60;0.60;;;7.70;99.90;;;;;;5051537;28;20220;-65
2023/03/17 01:34:32;;;;;;;0.50;0.50;;;7.70;99.90;;;;;;5050617;28;20717;-64
2023/03/17 01:37:00;;;;;;;0.50;0.50;;;7.60;99.90;;;;;;5051326;28;20318;-65
2023/03/17 01:39:28;;;;;;;0.70;0.70;;;7.50;99.90;;;;;;5051577;28;20619;-64
2023/03/17 01:42:00;;;;;;;0.60;0.60;;;7.40;99.90;;;;;;5051574;28;20208;-64
2023/03/17 01:44:27;;;;;;;0.67;0.67;;;7.40;99.90;;;;;;5050914;28;20249;-63
2023/03/17 01:46:54;;;;;;;0.70;0.70;;;7.30;99.90;;;;;;5052531;28;20219;-62
2023/03/17 01:49:28;;;;;;;0.70;0.70;;;7.30;99.90;;;;;;5052956;28;20298;-64
2023/03/17 01:52:03;;;;;;;1.00;1.00;;;7.40;99.90;;;;;;5052442;28;20218;-65
2023/03/17 01:54:35;;;;;;;0.90;0.90;;;7.40;99.90;;;;;;5052090;28;20322;-62
2023/03/17 01:57:10;;;;;;;0.70;0.70;;;7.30;99.90;;;;;;5052770;28;20234;-63
2023/03/17 01:59:44;;;;;;;0.60;0.60;;;7.30;99.90;;;;;;5052685;28;20729;-64
2023/03/17 02:02:15;;;;;;;0.63;0.60;;;7.30;99.90;;;;;;5060114;28;20670;-63
2023/03/17 02:04:42;;;;;;;0.60;0.60;;;7.30;99.90;;;;;;5058756;28;20196;-64
2023/03/17 02:07:10;;;;;;;0.77;0.67;;;7.20;99.90;;;;;;5061005;28;20226;-62
2023/03/17 02:09:37;;;;;;;0.50;0.50;;;7.20;99.90;;;;;;5062795;28;20208;-63
2023/03/17 02:12:08;;;;;;;0.50;0.50;;;7.20;99.90;;;;;;5063918;28;20242;-62
2023/03/17 02:14:35;;;;;;;0.60;0.60;;;7.10;99.90;;;;;;5048676;28;20232;-62
2023/03/17 02:17:02;;;;;;;0.70;0.70;;;7.10;99.90;;;;;;5050822;28;20231;-65
2023/03/17 02:19:29;;;;;;;0.80;0.73;;;7.10;99.90;;;;;;5049750;28;20584;-64
2023/03/17 02:21:59;;;;;;;0.70;0.70;;;7.10;99.90;;;;;;5050438;28;20542;-65
2023/03/17 02:24:31;;;;;;;0.70;0.70;;;7.10;99.90;;;;;;5050323;28;20231;-62
2023/03/17 02:27:04;;;;;;;0.70;0.70;;;7.10;99.90;;;;;;5050839;28;20274;-65
2023/03/17 02:29:34;;;;;;;0.77;0.77;;;7.00;99.90;;;;;;5048954;28;20204;-62
2023/03/17 02:32:01;;;;;;;0.87;0.87;;;7.00;99.90;;;;;;5051507;28;20871;-62
2023/03/17 02:34:28;;;;;;;0.70;0.70;;;6.90;99.90;;;;;;5050495;28;20542;-64
2023/03/17 02:36:57;;;;;;;0.60;0.60;;;6.80;99.90;;;;;;5050758;28;20232;-63
2023/03/17 02:39:24;;;;;;;0.70;0.70;;;6.70;99.90;;;;;;5051314;28;20242;-63
2023/03/17 02:41:51;;;;;;;0.63;0.63;;;6.70;99.90;;;;;;5050491;28;20589;-62
2023/03/17 02:44:18;;;;;;;0.60;0.60;;;6.60;99.90;;;;;;5049743;28;20578;-64
2023/03/17 02:46:45;;;;;;;0.63;0.60;;;6.60;99.90;;;;;;5050403;28;20228;-64
2023/03/17 02:49:13;;;;;;;0.67;0.67;;;6.60;99.90;;;;;;5050491;28;20208;-63
2023/03/17 02:51:40;;;;;;;0.80;0.80;;;6.60;99.90;;;;;;5050141;28;20208;-65
2023/03/17 02:54:08;;;;;;;0.82;0.82;;;6.50;99.90;;;;;;5049786;28;20230;-65
2023/03/17 02:56:35;;;;;;;0.70;0.70;;;6.60;99.90;;;;;;5050383;28;20224;-63
2023/03/17 02:59:02;;;;;;;0.68;0.68;;;6.60;99.90;;;;;;5050562;28;20207;-64
2023/03/17 03:01:29;;;;;;;0.70;0.70;;;6.50;99.90;;;;;;5050059;28;20203;-64
2023/03/17 03:03:56;;;;;;;0.50;0.50;;;6.50;99.90;;;;;;5049153;28;20293;-64
2023/03/17 03:06:23;;;;;;;0.70;0.70;;;6.40;99.90;;;;;;5050409;28;20257;-65
2023/03/17 03:08:50;;;;;;;0.50;0.50;;;6.40;99.90;;;;;;5049732;28;20670;-63
2023/03/17 03:11:19;;;;;;;0.40;0.40;;;6.40;99.90;;;;;;5049656;28;20208;-63
2023/03/17 03:13:46;;;;;;;0.37;0.37;;;6.40;99.90;;;;;;5049556;28;20611;-63
2023/03/17 03:16:13;;;;;;;0.50;0.50;;;6.40;99.90;;;;;;5049889;28;20717;-63
2023/03/17 03:18:40;;;;;;;0.50;0.50;;;6.50;99.90;;;;;;5050324;28;20274;-64
2023/03/17 03:21:07;;;;;;;0.60;0.60;;;6.50;99.90;;;;;;5052543;28;20212;-63
2023/03/17 03:23:34;;;;;;;0.80;0.65;;;6.50;99.90;;;;;;5052160;28;20299;-66
2023/03/17 03:26:02;;;;;;;0.60;0.60;;;6.50;99.90;;;;;;5051076;28;20227;-63
2023/03/17 03:28:30;;;;;;;0.50;0.50;;;6.50;99.90;;;;;;5050686;28;20704;-64
2023/03/17 03:30:57;;;;;;;0.53;0.53;;;6.50;99.90;;;;;;5053314;28;20828;-64
2023/03/17 03:33:24;;;;;;;0.60;0.60;;;6.40;99.90;;;;;;5054533;28;20319;-62
2023/03/17 03:35:51;;;;;;;0.70;0.70;;;6.40;99.90;;;;;;5054133;28;20231;-64
2023/03/17 03:38:18;;;;;;;0.60;0.60;;;6.30;99.90;;;;;;5054603;28;20215;-64
2023/03/17 03:40:51;;;;;;;0.70;0.70;;;6.30;99.90;;;;;;5054997;28;20213;-62
2023/03/17 03:43:18;;;;;;;0.40;0.40;;;6.40;99.90;;;;;;5054470;28;20645;-62
2023/03/17 03:45:46;;;;;;;0.60;0.60;;;6.40;99.90;;;;;;5055158;28;20223;-63
2023/03/17 03:48:13;;;;;;;0.53;0.53;;;6.40;99.90;;;;;;5054860;28;20210;-63
2023/03/17 03:50:40;;;;;;;0.70;0.70;;;6.30;99.90;;;;;;5053438;28;20222;-64
2023/03/17 03:53:07;;;;;;;0.50;0.50;;;6.30;99.90;;;;;;5053539;28;20294;-63
2023/03/17 03:55:33;;;;;;;0.45;0.45;;;6.30;99.90;;;;;;5052624;28;20228;-63
2023/03/17 03:58:00;;;;;;;0.50;0.50;;;6.30;99.90;;;;;;5053306;28;20214;-63
2023/03/17 04:00:27;;;;;;;0.60;0.60;;;6.20;99.90;;;;;;5053801;28;20566;-63
2023/03/17 04:02:55;;;;;;;0.50;0.50;;;6.20;99.90;;;;;;5053733;28;20638;-64
2023/03/17 04:05:22;;;;;;;0.43;0.43;;;6.10;99.90;;;;;;5052408;28;20204;-64
2023/03/17 04:07:49;;;;;;;0.40;0.40;;;6.10;99.90;;;;;;5053787;28;20204;-65
2023/03/17 04:10:16;;;;;;;0.60;0.60;;;6.00;99.90;;;;;;5053085;28;20211;-61
2023/03/17 04:12:44;;;;;;;0.50;0.50;;;6.00;99.90;;;;;;5052912;28;20638;-63
2023/03/17 04:15:15;;;;;;;0.43;0.43;;;5.90;99.90;;;;;;5052499;28;20222;-62
2023/03/17 04:17:42;;;;;;;0.40;0.40;;;5.90;99.90;;;;;;5053056;28;20284;-66
2023/03/17 04:20:13;;;;;;;0.50;0.50;;;5.80;99.90;;;;;;5053312;28;20211;-63
2023/03/17 04:22:40;;;;;;;0.45;0.45;;;5.80;99.90;;;;;;5053228;28;20330;-63
2023/03/17 04:25:09;;;;;;;0.38;0.38;;;5.80;99.90;;;;;;5052400;28;20204;-64
2023/03/17 04:27:36;;;;;;;0.50;0.50;;;5.70;99.90;;;;;;5053075;28;20257;-64
2023/03/17 04:30:03;;;;;;;0.60;0.60;;;5.70;99.90;;;;;;5055619;28;20606;-62
2023/03/17 04:32:30;;;;;;;0.70;0.70;;;5.70;99.90;;;;;;5055578;28;20582;-63
2023/03/17 04:34:57;;;;;;;0.60;0.60;;;5.60;99.90;;;;;;5054913;28;20227;-63
2023/03/17 04:37:26;;;;;;;0.30;0.30;;;5.60;99.90;;;;;;5053417;28;20223;-64
2023/03/17 04:39:53;;;;;;;0.60;0.60;;;5.60;99.90;;;;;;5053313;28;20211;-66
2023/03/17 04:42:20;;;;;;;0.77;0.77;;;5.70;99.90;;;;;;5052134;28;20215;-66
2023/03/17 04:44:47;;;;;;;0.50;0.50;;;5.70;99.90;;;;;;5052237;28;20195;-64
2023/03/17 04:47:14;;;;;;;2.67;0.80;;;5.70;99.90;;;;;;5054568;28;20227;-64
2023/03/17 04:49:41;;;;;;;0.57;0.57;;;5.80;99.90;;;;;;5055452;28;20192;-64
2023/03/17 04:52:08;;;;;;;0.60;0.60;;;5.80;99.90;;;;;;5057126;28;20291;-66
2023/03/17 04:54:36;;;;;;;0.70;0.70;;;5.70;99.90;;;;;;5055963;28;20600;-66
2023/03/17 04:57:03;;;;;;;0.40;0.40;;;5.70;99.90;;;;;;5054870;28;20601;-64
2023/03/17 04:59:30;;;;;;;0.50;0.50;;;5.70;99.90;;;;;;5053066;28;20223;-65
2023/03/17 05:01:57;;;;;;;0.60;0.60;;;5.70;99.90;;;;;;5052051;28;20230;-65
2023/03/17 05:04:24;;;;;;;0.70;0.70;;;5.70;99.90;;;;;;5052017;28;20290;-65
2023/03/17 05:06:51;;;;;;;0.70;0.70;;;5.60;99.90;;;;;;5053703;28;20223;-66
2023/03/17 05:09:18;;;;;;;0.73;0.73;;;5.60;99.90;;;;;;5051419;28;20690;-64
2023/03/17 05:11:46;;;;;;;0.70;0.70;;;5.60;99.90;;;;;;5050137;28;20302;-64
2023/03/17 05:14:13;;;;;;;0.80;0.80;;;5.60;99.90;;;;;;5049827;28;20211;-66
2023/03/17 05:16:40;;;;;;;0.80;0.80;;;5.60;99.90;;;;;;5050881;28;20544;-66
2023/03/17 05:19:07;;;;;;;0.70;0.70;;;5.60;99.90;;;;;;5051341;28;20208;-65
2023/03/17 05:21:34;;;;;;;0.57;0.57;;;5.50;99.90;;;;;;5051224;28;20295;-62
2023/03/17 05:24:01;;;;;;;0.73;0.73;;;5.50;99.90;;;;;;5047726;28;20208;-64
2023/03/17 05:26:28;;;;;;;0.70;0.70;;;5.50;99.90;;;;;;5047813;28;20230;-64
2023/03/17 05:28:56;;;;;;;0.67;0.67;;;5.50;99.90;;;;;;5041995;28;20200;-66
2023/03/17 05:31:23;;;;;;;0.83;0.83;;;5.40;99.90;;;;;;5031883;28;20225;-64
2023/03/17 05:33:50;;;;;;;0.70;0.70;;;5.40;99.90;;;;;;5040005;28;20239;-64
2023/03/17 05:36:17;;;;;;;0.63;0.63;;;5.30;99.90;;;;;;5051251;28;20227;-64
2023/03/17 05:38:44;;;;;;;0.90;0.90;;;5.30;99.90;;;;;;5052620;28;20203;-66
2023/03/17 05:41:11;;;;;;;0.90;0.90;;;5.40;99.90;;;;;;5044945;28;20204;-63
2023/03/17 05:43:38;;;;;;;1.42;0.95;;;5.40;99.90;;;;;;5059636;28;20200;-65
2023/03/17 05:46:07;;;;;;;0.80;0.80;;;5.40;99.90;;;;;;5057399;28;20231;-65
2023/03/17 05:48:34;;;;;;;0.80;0.80;;;5.40;99.90;;;;;;5053041;28;20318;-65
2023/03/17 05:51:01;;;;;;;0.90;0.90;;;5.50;99.90;;;;;;5052664;28;20619;-64
2023/03/17 05:53:28;;;;;;;0.90;0.90;;;5.40;99.90;;;;;;5051116;28;21032;-64
2023/03/17 05:55:55;;;;;;;3.35;1.20;;;5.30;99.90;;;;;;5051295;28;20231;-65
2023/03/17 05:58:22;;;;;;;1.08;1.08;;;5.30;99.90;;;;;;5051241;28;20225;-64
2023/03/17 06:00:49;;;;;;;1.08;1.08;;;5.30;99.90;;;;;;5051260;28;20202;-64
2023/03/17 06:03:18;;;;;;;0.88;0.88;;;5.20;99.90;;;;;;5050616;28;20216;-62
2023/03/17 06:05:45;;;;;;;0.70;0.70;;;5.20;99.90;;;;;;5046380;28;20296;-64
2023/03/17 06:08:12;;;;;;;0.90;0.90;;;5.20;99.90;;;;;;5039536;28;20232;-65
2023/03/17 06:10:40;;;;;;;0.80;0.80;;;5.20;99.90;;;;;;5046304;28;20196;-65
2023/03/17 06:13:06;;;;;;;1.97;0.90;;;5.20;99.90;;;;;;5051065;28;20308;-63
2023/03/17 06:15:35;;;;;;;1.13;0.90;;;5.20;99.90;;;;;;5049447;28;20228;-64
2023/03/17 06:18:03;;;;;;;1.00;1.00;;;5.20;99.90;;;;;;5050534;28;20371;-62
2023/03/17 06:20:32;;;;;;;0.82;0.82;;;5.20;99.90;;;;;;5050313;28;20204;-62
2023/03/17 06:22:59;;;;;;;0.95;0.95;;;5.30;99.90;;;;;;5050039;28;20196;-62
2023/03/17 06:25:26;;;;;;;1.00;1.00;;;5.30;99.90;;;;;;5049516;28;20281;-62
2023/03/17 06:27:54;;;;;;;0.88;0.88;;;5.40;99.90;;;;;;5046285;28;20208;-62
2023/03/17 06:30:22;;;;;;;0.90;0.90;;;5.50;99.90;;;;;;5049765;28;20211;-62
2023/03/17 06:32:49;;;;;;;0.90;0.85;;;5.60;99.90;;;;;;5040724;28;20204;-64
2023/03/17 06:35:16;;;;;;;0.98;0.98;;;5.70;99.90;;;;;;5048494;28;20208;-64
2023/03/17 06:37:45;;;;;;;0.90;0.90;;;5.80;99.90;;;;;;5050052;28;20208;-63
2023/03/17 06:40:13;;;;;;;0.90;0.90;;;5.90;99.90;;;;;;5050305;28;20261;-63
2023/03/17 06:42:40;;;;;;;1.00;1.00;;;6.00;99.90;;;;;;5049225;28;20211;-63
2023/03/17 06:45:09;;;;;;;1.00;1.00;;;6.10;99.90;;;;;;5049297;28;20208;-64
2023/03/17 06:47:37;;;;;;;1.05;1.00;;;6.10;99.90;;;;;;5043771;28;20230;-62
2023/03/17 06:50:04;;;;;;;0.73;0.73;;;6.20;99.90;;;;;;5033479;28;20200;-63
2023/03/17 06:52:31;;;;;;;0.70;0.70;;;6.30;99.90;;;;;;5063716;28;20211;-63
2023/03/17 06:54:59;;;;;;;1.00;1.00;;;6.40;99.90;;;;;;5057372;28;20262;-64
2023/03/17 06:57:26;;;;;;;0.90;0.90;;;6.40;99.90;;;;;;5050193;28;20281;-64
2023/03/17 06:59:52;;;;;;;0.77;0.77;;;6.40;99.90;;;;;;5050121;28;20234;-63
2023/03/17 07:02:19;;;;;;;0.80;0.80;;;6.50;99.90;;;;;;5049345;28;20694;-63
2023/03/17 07:04:46;;;;;;;0.77;0.77;;;6.50;99.90;;;;;;5049319;28;20204;-64
2023/03/17 07:07:13;;;;;;;0.80;0.80;;;6.50;99.90;;;;;;5050591;28;20662;-64
2023/03/17 07:09:40;;;;;;;1.00;1.00;;;6.60;99.90;;;;;;5050280;28;20210;-65
2023/03/17 07:12:09;;;;;;;0.88;0.88;;;6.60;99.90;;;;;;5050909;28;20234;-64
2023/03/17 07:14:36;;;;;;;1.20;1.00;;;6.70;99.90;;;;;;5049877;28;20218;-63
2023/03/17 07:17:05;;;;;;;0.85;0.70;;;6.80;99.90;;;;;;5053140;28;20707;-63
2023/03/17 07:19:32;;;;;;;0.80;0.80;;;6.90;99.90;;;;;;5052626;28;20200;-65
2023/03/17 07:21:59;;;;;;;0.70;0.70;;;6.90;99.90;;;;;;5051545;28;20223;-63
2023/03/17 07:24:26;;;;;;;0.90;0.90;;;7.00;99.90;;;;;;5057158;28;20275;-65
2023/03/17 07:26:53;;;;;;;0.88;0.88;;;7.00;99.90;;;;;;5056926;28;20220;-63
2023/03/17 07:29:21;;;;;;;0.97;0.97;;;7.00;99.90;;;;;;5054824;28;20302;-64
2023/03/17 07:31:48;;;;;;;0.90;0.80;;;7.10;99.90;;;;;;5053967;28;20215;-64
2023/03/17 07:34:15;;;;;;;0.82;0.82;;;7.20;99.90;;;;;;5052821;28;20214;-63
2023/03/17 07:36:42;;;;;;;0.90;0.90;;;7.20;99.90;;;;;;5049839;28;20228;-63
2023/03/17 07:39:11;;;;;;;0.80;0.80;;;7.20;99.90;;;;;;5044645;28;20203;-63
2023/03/17 07:41:38;;;;;;;0.82;0.82;;;7.30;99.90;;;;;;5050663;28;20200;-63
2023/03/17 07:44:05;;;;;;;1.10;1.10;;;7.30;99.90;;;;;;5054922;28;20206;-63
2023/03/17 07:46:33;;;;;;;0.90;0.90;;;7.40;99.90;;;;;;5061120;28;20226;-63
2023/03/17 07:49:00;;;;;;;0.80;0.80;;;7.50;99.90;;;;;;5056974;28;20287;-64
2023/03/17 07:51:27;;;;;;;0.97;0.90;;;7.60;99.90;;;;;;5059428;28;20593;-65
2023/03/17 07:54:02;;;;;;;0.80;0.80;;;7.70;99.90;;;;;;5060309;28;20674;-63
2023/03/17 07:56:29;;;;;;;0.88;0.88;;;7.70;99.90;;;;;;5053668;28;20417;-65
2023/03/17 07:58:57;;;;;;;0.90;0.90;;;7.90;99.90;;;;;;5057704;28;20192;-64
2023/03/17 08:01:24;;;;;;;0.90;0.90;;;8.10;99.90;;;;;;5058736;28;20192;-66
2023/03/17 08:03:53;;;;;;;0.90;0.90;;;8.20;99.90;;;;;;5058371;28;20587;-66
2023/03/17 08:06:20;;;;;;;1.00;1.00;;;8.40;99.90;;;;;;5054928;28;20323;-66
2023/03/17 08:08:47;;;;;;;0.90;0.90;;;8.60;99.90;;;;;;5059004;28;20199;-63
2023/03/17 08:11:14;;;;;;;1.00;1.00;;;8.80;99.90;;;;;;5057350;28;20249;-63
2023/03/17 08:13:40;;;;;;;0.80;0.80;;;8.90;99.90;;;;;;5055952;28;20299;-64
2023/03/17 08:16:08;;;;;;;0.80;0.80;;;9.10;99.90;;;;;;5060789;28;20681;-66
2023/03/17 08:18:35;;;;;;;0.80;0.80;;;9.40;99.90;;;;;;5064611;28;20398;-65
2023/03/17 08:21:04;;;;;;;0.80;0.80;;;9.60;99.90;;;;;;5068757;28;20226;-66
2023/03/17 08:23:31;;;;;;;0.70;0.70;;;9.80;99.90;;;;;;5075128;28;20199;-64
2023/03/17 08:25:58;;;;;;;0.67;0.67;;;10.10;99.90;;;;;;5066245;28;20220;-64
2023/03/17 08:28:25;;;;;;;0.73;0.73;;;10.40;99.90;;;;;;5060408;28;20211;-62
2023/03/17 08:30:53;;;;;;;0.70;0.70;;;10.60;99.90;;;;;;5059225;28;20204;-62
2023/03/17 08:33:20;;;;;;;0.50;0.50;;;10.90;99.90;;;;;;5040118;28;20702;-62
2023/03/17 08:35:47;;;;;;;0.70;0.70;;;11.10;99.90;;;;;;5040270;28;20225;-64
2023/03/17 08:38:15;;;;;;;0.77;0.77;;;11.40;99.90;;;;;;5064914;28;20203;-62
2023/03/17 08:40:42;;;;;;;0.60;0.60;;;11.60;99.90;;;;;;5053520;28;20211;-63
2023/03/17 08:43:09;;;;;;;0.90;0.90;;;11.80;99.90;;;;;;5054101;28;20242;-63
2023/03/17 08:45:35;;;;;;;0.50;0.50;;;11.90;99.90;;;;;;5053614;28;20437;-62
2023/03/17 08:48:03;;;;;;;1.00;1.00;;;12.10;99.90;;;;;;5057808;28;20667;-62
2023/03/17 08:50:29;;;;;;;2.13;0.87;;;12.20;99.90;;;;;;5065492;28;20202;-62
2023/03/17 08:52:56;;;;;;;0.90;0.90;;;12.40;99.90;;;;;;5059364;28;20196;-64
2023/03/17 08:55:24;;;;;;;0.90;0.90;;;12.60;99.90;;;;;;5062757;28;20286;-64
2023/03/17 08:57:51;;;;;;;0.70;0.70;;;12.70;99.90;;;;;;5056919;28;20196;-64
2023/03/17 09:00:20;;;;;;;0.77;0.77;;;12.70;99.90;;;;;;5063981;28;20676;-62
2023/03/17 09:02:48;;;;;;;0.90;0.90;;;12.90;99.90;;;;;;5061832;28;20197;-63
2023/03/17 09:05:16;;;;;;;0.70;0.70;;;12.90;99.90;;;;;;5055105;28;20222;-63
2023/03/17 09:07:43;;;;;;;0.80;0.80;;;13.00;99.90;;;;;;5056462;28;20200;-62
2023/03/17 09:10:12;;;;;;;0.80;0.80;;;13.10;99.90;;;;;;5056380;28;20195;-62
2023/03/17 09:12:41;;;;;;;0.90;0.90;;;13.20;99.90;;;;;;5072447;28;20188;-63
2023/03/17 09:15:09;;;;;;;1.00;1.00;;;13.20;99.90;;;;;;5074690;28;20204;-65
2023/03/17 09:17:36;;;;;;;0.80;0.80;;;13.30;99.90;;;;;;5072716;28;20228;-64
2023/03/17 09:20:05;;;;;;;0.90;0.90;;;13.40;99.90;;;;;;5066788;28;20219;-63
2023/03/17 09:22:32;;;;;;;0.93;0.93;;;13.60;99.90;;;;;;5054062;28;20254;-65
2023/03/17 09:24:59;;;;;;;0.80;0.80;;;13.60;99.90;;;;;;5052219;28;20192;-63
2023/03/17 09:27:26;;;;;;;1.13;1.00;;;13.70;99.90;;;;;;5051880;28;20321;-64
2023/03/17 09:29:55;;;;;;;0.85;0.85;;;13.80;99.90;;;;;;5052385;28;20310;-65
2023/03/17 09:32:22;;;;;;;1.00;1.00;;;13.90;99.90;;;;;;5051986;28;20257;-63
2023/03/17 09:34:49;;;;;;;0.93;0.93;;;13.90;99.90;;;;;;5051388;28;20199;-64
2023/03/17 09:37:16;;;;;;;0.97;0.97;;;13.90;99.90;;;;;;5051559;28;20226;-63
2023/03/17 09:39:42;;;;;;;1.10;1.00;;;14.00;99.90;;;;;;5051741;28;20207;-65
2023/03/17 09:42:24;;;;;;;1.17;1.07;;;14.10;99.90;;;;;;5052061;28;20206;-64
2023/03/17 09:45:06;;;;;;;1.30;1.10;;;14.30;99.90;;;;;;5050222;28;20208;-63
2023/03/17 09:47:55;;;;;;;1.33;1.00;;;14.50;99.90;;;;;;5046861;28;20733;-63
2023/03/17 09:50:25;;;;;;;1.00;1.00;;;14.60;99.90;;;;;;5047207;28;20281;-65
2023/03/17 09:52:55;;;;;;;1.10;1.10;;;14.70;99.90;;;;;;5051539;28;20579;-64
2023/03/17 09:55:27;;;;;;;0.88;0.88;;;14.80;99.90;;;;;;5050854;28;20212;-64
2023/03/17 09:57:55;;;;;;;1.00;1.00;;;15.10;99.90;;;;;;5051635;28;20323;-65
2023/03/17 10:00:27;;;;;;;1.10;1.10;;;15.30;99.90;;;;;;5051857;28;20219;-65
2023/03/17 10:02:55;;;;;;;1.60;1.00;;;15.20;99.90;;;;;;5048469;28;20211;-64
2023/03/17 10:05:25;;;;;;;1.10;1.10;;;15.10;99.90;;;;;;5050451;28;20572;-65
2023/03/17 10:08:01;;;;;;;1.27;1.00;;;15.30;99.90;;;;;;5048299;28;20204;-65
2023/03/17 10:10:35;;;;;;;1.00;1.00;;;15.40;99.90;;;;;;5046774;28;20630;-65
2023/03/17 10:13:09;;;;;;;0.98;0.98;;;15.60;99.90;;;;;;5048398;28;20208;-65
2023/03/17 10:15:45;;;;;;;1.20;1.20;;;15.60;99.90;;;;;;5041059;28;20228;-65
2023/03/17 10:18:14;;;;;;;1.10;1.10;;;15.60;99.90;;;;;;5036521;28;20570;-64
2023/03/17 10:20:48;;;;;;;1.10;1.10;;;15.60;99.90;;;;;;5045339;28;20197;-64
2023/03/17 10:23:19;;;;;;;1.30;1.20;;;15.60;99.90;;;;;;5041200;28;20210;-66
2023/03/17 10:25:47;;;;;;;1.30;1.30;;;15.60;99.90;;;;;;5041451;28;20646;-64
2023/03/17 10:28:25;;;;;;;0.90;0.90;;;15.50;99.90;;;;;;5050722;28;20872;-64
2023/03/17 10:30:53;;;;;;;1.30;1.25;;;15.60;99.90;;;;;;5040379;28;20227;-64
2023/03/17 10:33:21;;;;;;;0.93;0.93;;;15.40;99.90;;;;;;5045239;28;20227;-64
2023/03/17 10:35:48;;;;;;;1.10;1.10;;;15.50;99.90;;;;;;5042784;28;20234;-65
2023/03/17 10:38:17;;;;;;;0.95;0.95;;;15.60;99.90;;;;;;5045819;28;20200;-65
2023/03/17 10:40:47;;;;;;;1.20;1.20;;;15.80;99.90;;;;;;5043695;28;20211;-64
2023/03/17 10:43:18;;;;;;;0.87;0.87;;;16.00;99.90;;;;;;5046571;28;20208;-65
2023/03/17 10:45:55;;;;;;;0.90;0.90;;;16.10;99.90;;;;;;5042540;28;20230;-65
2023/03/17 10:48:23;;;;;;;1.10;1.10;;;16.20;99.90;;;;;;5061448;28;20200;-64
2023/03/17 10:50:51;;;;;;;1.00;1.00;;;16.10;99.90;;;;;;5057665;28;20287;-69
2023/03/17 10:53:26;;;;;;;1.00;0.90;;;16.10;99.90;;;;;;5059371;28;20270;-65
2023/03/17 10:55:56;;;;;;;1.07;1.07;;;16.10;99.90;;;;;;5057454;28;20292;-64
2023/03/17 10:58:36;;;;;;;1.17;1.10;;;16.00;99.90;;;;;;5058206;28;20238;-63
2023/03/17 11:01:06;;;;;;;1.00;1.00;;;16.10;99.90;;;;;;5060183;28;20192;-64
2023/03/17 11:03:38;;;;;;;1.10;1.10;;;16.00;99.90;;;;;;5058046;28;20204;-64
2023/03/17 11:06:07;;;;;;;1.03;1.03;;;16.10;99.90;;;;;;5059190;28;20216;-65
2023/03/17 11:08:35;;;;;;;1.67;1.20;;;16.10;99.90;;;;;;5065382;28;20207;-66
2023/03/17 11:11:07;;;;;;;1.00;1.00;;;16.10;99.90;;;;;;5061431;28;20210;-65
2023/03/17 11:13:34;;;;;;;0.90;0.90;;;16.10;99.90;;;;;;5061190;28;20614;-63
2023/03/17 11:16:10;;;;;;;1.85;1.27;;;16.10;99.90;;;;;;5061747;28;20302;-65
2023/03/17 11:18:40;;;;;;;1.00;1.00;;;16.10;99.90;;;;;;5061586;28;20203;-65
2023/03/17 11:21:10;;;;;;;1.15;1.10;;;16.10;99.90;;;;;;5063684;28;20199;-62
2023/03/17 11:23:52;;;;;;;1.38;1.10;;;16.30;99.90;;;;;;5062184;28;20286;-64
2023/03/17 11:26:47;;;;;;;1.30;1.20;;;16.30;99.90;;;;;;5060133;28;20228;-64
2023/03/17 11:29:22;;;;;;;1.63;1.52;;;16.30;99.90;;;;;;5055478;28;20206;-65
2023/03/17 11:31:57;;;;;;;1.70;1.42;;;16.40;99.90;;;;;;5058348;28;20290;-63
2023/03/17 11:34:37;;;;;;;1.02;1.02;;;16.50;99.90;;;;;;5061957;28;20203;-65
2023/03/17 11:37:15;;;;;;;1.10;1.10;;;16.80;99.90;;;;;;5078418;28;20294;-65
2023/03/17 11:39:51;;;;;;;1.25;1.25;;;17.00;99.90;;;;;;5075856;28;20195;-64
2023/03/17 11:42:22;;;;;;;3.13;1.55;;;17.30;99.90;;;;;;5079826;28;20211;-64
2023/03/17 11:45:14;;;;;;;1.57;1.47;;;17.40;99.90;;;;;;5081524;28;20230;-64
2023/03/17 11:47:56;;;;;;;1.70;1.60;;;17.30;99.90;;;;;;5080262;28;20207;-63
2023/03/17 11:50:30;;;;;;;1.25;1.25;;;17.20;99.90;;;;;;5072208;28;20202;-64
2023/03/17 11:53:10;;;;;;;1.38;1.38;;;17.10;99.90;;;;;;5078320;28;20230;-63
2023/03/17 11:55:43;;;;;;;1.63;1.30;;;17.20;99.90;;;;;;5043159;28;20306;-64
2023/03/17 12:10:39;;;;;;;1.52;1.42;;;17.20;99.90;;;;;;5106644;27;20565;-65
2023/03/17 12:13:10;;;;;;;2.08;1.40;;;17.90;99.90;;;;;;5107553;28;20267;-65
2023/03/17 12:15:42;;;;;;;1.20;1.20;;;18.00;99.90;;;;;;5100286;28;20203;-65
2023/03/17 12:18:16;;;;;;;1.10;1.10;;;17.90;99.90;;;;;;5096312;28;20709;-65
2023/03/17 12:20:50;;;;;;;1.25;1.20;;;17.80;99.90;;;;;;5087854;28;20224;-65
2023/03/17 12:23:28;;;;;;;1.05;1.05;;;17.90;99.90;;;;;;5087912;28;20204;-65
2023/03/17 12:26:02;;;;;;;0.90;0.90;;;17.90;99.90;;;;;;5087800;28;20199;-65
2023/03/17 12:28:36;;;;;;;0.80;0.80;;;17.90;99.90;;;;;;5088614;28;20217;-65
2023/03/17 12:31:06;;;;;;;1.00;1.00;;;18.00;99.90;;;;;;5082922;28;20226;-64
2023/03/17 12:33:41;;;;;;;1.13;1.13;;;18.10;99.90;;;;;;5079143;28;20203;-65
2023/03/17 12:36:13;;;;;;;1.40;1.20;;;18.10;99.90;;;;;;5084471;28;20561;-66
2023/03/17 12:38:45;;;;;;;1.08;1.08;;;18.20;99.90;;;;;;5077557;28;20223;-65
2023/03/17 12:41:38;;;;;;;0.93;0.93;;;18.30;99.90;;;;;;5082630;28;20257;-66
2023/03/17 12:44:14;;;;;;;2.13;1.33;;;18.30;99.90;;;;;;5086240;28;20700;-65
2023/03/17 12:47:06;;;;;;;1.00;1.00;;;18.20;99.90;;;;;;5086850;28;20881;-65
2023/03/17 12:50:09;;;;;;;1.20;1.20;;;18.10;99.90;;;;;;5086784;28;20199;-66
2023/03/17 12:52:54;;;;;;;0.82;0.82;;;18.00;99.90;;;;;;5087239;28;20695;-66
2023/03/17 12:55:25;;;;;;;1.13;1.13;;;18.10;99.90;;;;;;5087400;28;20191;-65
2023/03/17 12:58:02;;;;;;;1.00;1.00;;;18.20;99.90;;;;;;5088000;28;20213;-65
2023/03/17 13:00:31;;;;;;;1.20;1.10;;;18.20;99.90;;;;;;5086974;28;20280;-65
2023/03/17 13:03:23;;;;;;;1.20;1.20;;;18.30;99.90;;;;;;5087152;28;20870;-64
2023/03/17 13:05:52;;;;;;;0.98;0.98;;;18.40;99.90;;;;;;5087467;28;20290;-65
2023/03/17 13:08:27;;;;;;;1.20;1.10;;;18.40;99.90;;;;;;5087285;28;20199;-66
2023/03/17 13:11:16;;;;;;;1.30;1.20;;;18.40;99.90;;;;;;5076570;28;20253;-67
2023/03/17 13:14:02;;;;;;;1.30;1.20;;;18.30;99.90;;;;;;5073687;28;20284;-64
2023/03/17 13:16:32;;;;;;;1.17;1.10;;;18.20;99.90;;;;;;5072323;28;20218;-64